sensor_id;sensor_type;location;lat;lon;timestamp;pressure;altitude;pressure_sealevel;temperature;humidity
48563;BME280;34981;49.104;11.396;2024-02-21T00:00:58;97052.06;;;3.99;100.00
48563;BME280;34981;49.104;11.396;2024-02-21T00:03:25;97049.41;;;3.99;100.00
48563;BME280;34981;49.104;11.396;2024-02-21T00:05:52;97048.59;;;3.99;100.00
48563;BME280;34981;49.104;11.396;2024-02-21T00:08:19;97038.97;;;3.98;100.00
48563;BME280;34981;49.104;11.396;2024-02-21T00:10:47;97043.28;;;3.99;100.00
48563;BME280;34981;49.104;11.396;2024-02-21T00:13:14;97035.50;;;3.97;100.00
48563;BME280;34981;49.104;11.396;2024-02-21T00:15:41;97025.88;;;3.96;100.00
48563;BME280;34981;49.104;11.396;2024-02-21T00:18:08;97024.22;;;3.95;100.00
48563;BME280;34981;49.104;11.396;2024-02-21T00:20:38;97025.28;;;3.94;100.00
48563;BME280;34981;49.104;11.396;2024-02-21T00:23:05;97029.53;;;3.95;100.00
48563;BME280;34981;49.104;11.396;2024-02-21T00:25:32;97020.97;;;3.93;100.00
48563;BME280;34981;49.104;11.396;2024-02-21T00:27:59;97019.13;;;3.94;100.00
48563;BME280;34981;49.104;11.396;2024-02-21T00:30:26;97017.28;;;3.94;100.00
48563;BME280;34981;49.104;11.396;2024-02-21T00:32:54;97014.81;;;3.92;100.00
48563;BME280;34981;49.104;11.396;2024-02-21T00:35:22;97019.94;;;3.94;100.00
48563;BME280;34981;49.104;11.396;2024-02-21T00:37:49;97012.56;;;3.96;100.00
48563;BME280;34981;49.104;11.396;2024-02-21T00:40:16;97007.44;;;3.95;100.00
48563;BME280;34981;49.104;11.396;2024-02-21T00:42:47;97008.25;;;3.95;100.00
48563;BME280;34981;49.104;11.396;2024-02-21T00:45:14;97001.72;;;3.98;100.00
48563;BME280;34981;49.104;11.396;2024-02-21T00:47:41;97003.75;;;3.96;100.00
48563;BME280;34981;49.104;11.396;2024-02-21T00:50:08;96996.59;;;3.96;100.00
48563;BME280;34981;49.104;11.396;2024-02-21T00:52:37;97000.50;;;3.94;100.00
48563;BME280;34981;49.104;11.396;2024-02-21T00:55:04;97003.16;;;3.94;100.00
48563;BME280;34981;49.104;11.396;2024-02-21T00:57:31;96996.78;;;3.88;100.00
48563;BME280;34981;49.104;11.396;2024-02-21T00:59:58;96994.34;;;3.86;100.00
48563;BME280;34981;49.104;11.396;2024-02-21T01:02:26;96994.75;;;3.83;100.00
48563;BME280;34981;49.104;11.396;2024-02-21T01:04:53;96992.28;;;3.82;100.00
48563;BME280;34981;49.104;11.396;2024-02-21T01:07:20;96989.44;;;3.83;100.00
48563;BME280;34981;49.104;11.396;2024-02-21T01:09:48;96984.72;;;3.79;100.00
48563;BME280;34981;49.104;11.396;2024-02-21T01:12:15;96980.22;;;3.79;100.00
48563;BME280;34981;49.104;11.396;2024-02-21T01:14:42;96975.91;;;3.78;100.00
48563;BME280;34981;49.104;11.396;2024-02-21T01:17:09;96979.41;;;3.79;100.00
48563;BME280;34981;49.104;11.396;2024-02-21T01:19:36;96970.59;;;3.78;100.00
48563;BME280;34981;49.104;11.396;2024-02-21T01:22:04;96963.66;;;3.77;100.00
48563;BME280;34981;49.104;11.396;2024-02-21T01:24:31;96954.66;;;3.78;100.00
48563;BME280;34981;49.104;11.396;2024-02-21T01:26:58;96938.69;;;3.78;100.00
48563;BME280;34981;49.104;11.396;2024-02-21T01:29:25;96936.63;;;3.80;100.00
48563;BME280;34981;49.104;11.396;2024-02-21T01:31:52;96929.28;;;3.82;100.00
48563;BME280;34981;49.104;11.396;2024-02-21T01:34:19;96917.81;;;3.82;100.00
48563;BME280;34981;49.104;11.396;2024-02-21T01:36:47;96897.97;;;3.84;100.00
48563;BME280;34981;49.104;11.396;2024-02-21T01:39:14;96894.06;;;3.80;100.00
48563;BME280;34981;49.104;11.396;2024-02-21T01:41:41;96888.34;;;3.83;100.00
48563;BME280;34981;49.104;11.396;2024-02-21T01:44:08;96877.72;;;3.83;100.00
48563;BME280;34981;49.104;11.396;2024-02-21T01:46:35;96877.72;;;3.83;100.00
48563;BME280;34981;49.104;11.396;2024-02-21T01:49:03;96868.91;;;3.83;100.00
48563;BME280;34981;49.104;11.396;2024-02-21T01:51:32;96864.44;;;3.83;100.00
48563;BME280;34981;49.104;11.396;2024-02-21T01:53:59;96848.88;;;3.80;100.00
48563;BME280;34981;49.104;11.396;2024-02-21T01:56:26;96839.28;;;3.79;100.00
48563;BME280;34981;49.104;11.396;2024-02-21T01:58:54;96844.16;;;3.82;100.00
48563;BME280;34981;49.104;11.396;2024-02-21T02:01:22;96827.00;;;3.78;100.00
48563;BME280;34981;49.104;11.396;2024-02-21T02:03:50;96824.94;;;3.80;100.00
48563;BME280;34981;49.104;11.396;2024-02-21T02:06:18;96819.03;;;3.78;100.00
48563;BME280;34981;49.104;11.396;2024-02-21T02:08:45;96814.09;;;3.82;100.00
48563;BME280;34981;49.104;11.396;2024-02-21T02:11:15;96800.59;;;3.83;100.00
48563;BME280;34981;49.104;11.396;2024-02-21T02:13:43;96789.97;;;3.83;100.00
48563;BME280;34981;49.104;11.396;2024-02-21T02:16:10;96779.13;;;3.78;100.00
48563;BME280;34981;49.104;11.396;2024-02-21T02:18:38;96763.19;;;3.78;100.00
48563;BME280;34981;49.104;11.396;2024-02-21T02:21:05;96745.38;;;3.79;100.00
48563;BME280;34981;49.104;11.396;2024-02-21T02:23:37;96723.88;;;3.80;100.00
48563;BME280;34981;49.104;11.396;2024-02-21T02:26:05;96705.06;;;3.82;100.00
48563;BME280;34981;49.104;11.396;2024-02-21T02:28:34;96673.75;;;3.84;100.00
48563;BME280;34981;49.104;11.396;2024-02-21T02:31:01;96655.97;;;3.84;100.00
48563;BME280;34981;49.104;11.396;2024-02-21T02:33:28;96653.09;;;3.86;100.00
48563;BME280;34981;49.104;11.396;2024-02-21T02:35:55;96643.47;;;3.85;100.00
48563;BME280;34981;49.104;11.396;2024-02-21T02:38:22;96628.72;;;3.89;100.00
48563;BME280;34981;49.104;11.396;2024-02-21T02:40:50;96608.06;;;3.91;100.00
48563;BME280;34981;49.104;11.396;2024-02-21T02:43:17;96588.63;;;3.90;100.00
48563;BME280;34981;49.104;11.396;2024-02-21T02:45:44;96583.91;;;3.92;100.00
48563;BME280;34981;49.104;11.396;2024-02-21T02:48:11;96565.88;;;3.95;100.00
48563;BME280;34981;49.104;11.396;2024-02-21T02:50:38;96545.66;;;3.94;100.00
48563;BME280;34981;49.104;11.396;2024-02-21T02:53:05;96530.28;;;3.96;100.00
48563;BME280;34981;49.104;11.396;2024-02-21T02:55:36;96515.94;;;3.97;100.00
48563;BME280;34981;49.104;11.396;2024-02-21T02:58:03;96500.00;;;3.97;100.00
48563;BME280;34981;49.104;11.396;2024-02-21T03:00:30;96476.88;;;3.97;100.00
48563;BME280;34981;49.104;11.396;2024-02-21T03:02:57;96462.75;;;3.97;100.00
48563;BME280;34981;49.104;11.396;2024-02-21T03:05:24;96451.28;;;3.96;100.00
48563;BME280;34981;49.104;11.396;2024-02-21T03:07:52;96447.59;;;3.97;100.00
48563;BME280;34981;49.104;11.396;2024-02-21T03:10:19;96442.09;;;3.99;100.00
48563;BME280;34981;49.104;11.396;2024-02-21T03:12:46;96434.09;;;3.99;100.00
48563;BME280;34981;49.104;11.396;2024-02-21T03:15:13;96427.75;;;4.00;100.00
48563;BME280;34981;49.104;11.396;2024-02-21T03:17:41;96414.25;;;4.01;100.00
48563;BME280;34981;49.104;11.396;2024-02-21T03:20:09;96412.00;;;3.98;100.00
48563;BME280;34981;49.104;11.396;2024-02-21T03:22:38;96404.25;;;3.97;100.00
48563;BME280;34981;49.104;11.396;2024-02-21T03:25:06;96396.25;;;3.97;100.00
48563;BME280;34981;49.104;11.396;2024-02-21T03:27:34;96397.28;;;3.96;100.00
48563;BME280;34981;49.104;11.396;2024-02-21T03:30:02;96398.09;;;3.96;100.00
48563;BME280;34981;49.104;11.396;2024-02-21T03:32:29;96402.59;;;3.96;100.00
48563;BME280;34981;49.104;11.396;2024-02-21T03:34:56;96408.38;;;3.92;100.00
48563;BME280;34981;49.104;11.396;2024-02-21T03:37:24;96408.78;;;3.89;100.00
48563;BME280;34981;49.104;11.396;2024-02-21T03:39:52;96419.88;;;3.86;100.00
48563;BME280;34981;49.104;11.396;2024-02-21T03:42:19;96424.38;;;3.86;100.00
48563;BME280;34981;49.104;11.396;2024-02-21T03:44:46;96428.88;;;3.85;100.00
48563;BME280;34981;49.104;11.396;2024-02-21T03:47:13;96431.91;;;3.89;100.00
48563;BME280;34981;49.104;11.396;2024-02-21T03:49:40;96435.84;;;3.86;100.00
48563;BME280;34981;49.104;11.396;2024-02-21T03:52:07;96440.91;;;3.88;100.00
48563;BME280;34981;49.104;11.396;2024-02-21T03:54:35;96451.34;;;3.89;100.00
48563;BME280;34981;49.104;11.396;2024-02-21T03:57:02;96458.72;;;3.87;100.00
48563;BME280;34981;49.104;11.396;2024-02-21T03:59:29;96469.16;;;3.89;100.00
48563;BME280;34981;49.104;11.396;2024-02-21T04:01:56;96472.00;;;3.87;100.00
48563;BME280;34981;49.104;11.396;2024-02-21T04:04:24;96460.81;;;3.85;100.00
48563;BME280;34981;49.104;11.396;2024-02-21T04:06:51;96476.31;;;3.88;100.00
48563;BME280;34981;49.104;11.396;2024-02-21T04:09:18;96478.38;;;3.86;100.00
48563;BME280;34981;49.104;11.396;2024-02-21T04:11:45;96483.25;;;3.89;100.00
48563;BME280;34981;49.104;11.396;2024-02-21T04:14:13;96496.56;;;3.89;100.00
48563;BME280;34981;49.104;11.396;2024-02-21T04:16:40;96502.91;;;3.88;100.00
48563;BME280;34981;49.104;11.396;2024-02-21T04:19:07;96504.97;;;3.86;100.00
48563;BME280;34981;49.104;11.396;2024-02-21T04:21:35;96521.75;;;3.87;100.00
48563;BME280;34981;49.104;11.396;2024-02-21T04:24:03;96530.75;;;3.86;100.00
48563;BME280;34981;49.104;11.396;2024-02-21T04:26:33;96530.97;;;3.84;100.00
48563;BME280;34981;49.104;11.396;2024-02-21T04:29:00;96531.19;;;3.83;100.00
48563;BME280;34981;49.104;11.396;2024-02-21T04:31:28;96529.75;;;3.80;100.00
48563;BME280;34981;49.104;11.396;2024-02-21T04:33:56;96528.16;;;3.79;100.00
48563;BME280;34981;49.104;11.396;2024-02-21T04:36:23;96546.31;;;3.82;100.00
48563;BME280;34981;49.104;11.396;2024-02-21T04:38:51;96539.34;;;3.81;100.00
48563;BME280;34981;49.104;11.396;2024-02-21T04:41:18;96538.78;;;3.73;100.00
48563;BME280;34981;49.104;11.396;2024-02-21T04:43:48;96543.06;;;3.74;100.00
48563;BME280;34981;49.104;11.396;2024-02-21T04:46:15;96553.50;;;3.75;100.00
48563;BME280;34981;49.104;11.396;2024-02-21T04:48:43;96560.66;;;3.75;100.00
48563;BME280;34981;49.104;11.396;2024-02-21T04:51:11;96558.22;;;3.73;100.00
48563;BME280;34981;49.104;11.396;2024-02-21T04:53:38;96552.53;;;3.70;100.00
48563;BME280;34981;49.104;11.396;2024-02-21T04:56:05;96548.44;;;3.67;100.00
48563;BME280;34981;49.104;11.396;2024-02-21T04:58:33;96549.69;;;3.65;100.00
48563;BME280;34981;49.104;11.396;2024-02-21T05:01:00;96551.13;;;3.61;100.00
48563;BME280;34981;49.104;11.396;2024-02-21T05:03:27;96552.16;;;3.60;100.00
48563;BME280;34981;49.104;11.396;2024-02-21T05:05:55;96564.22;;;3.62;100.00
48563;BME280;34981;49.104;11.396;2024-02-21T05:08:23;96554.41;;;3.63;100.00
48563;BME280;34981;49.104;11.396;2024-02-21T05:10:50;96578.69;;;3.66;100.00
48563;BME280;34981;49.104;11.396;2024-02-21T05:13:17;96574.44;;;3.65;100.00
48563;BME280;34981;49.104;11.396;2024-02-21T05:15:44;96587.94;;;3.64;100.00
48563;BME280;34981;49.104;11.396;2024-02-21T05:18:11;96582.41;;;3.65;100.00
48563;BME280;34981;49.104;11.396;2024-02-21T05:20:38;96588.34;;;3.61;100.00
48563;BME280;34981;49.104;11.396;2024-02-21T05:23:06;96604.69;;;3.64;100.00
48563;BME280;34981;49.104;11.396;2024-02-21T05:25:33;96611.88;;;3.57;100.00
48563;BME280;34981;49.104;11.396;2024-02-21T05:28:00;96618.81;;;3.58;100.00
48563;BME280;34981;49.104;11.396;2024-02-21T05:30:29;96625.75;;;3.59;100.00
48563;BME280;34981;49.104;11.396;2024-02-21T05:32:57;96634.75;;;3.58;100.00
48563;BME280;34981;49.104;11.396;2024-02-21T05:35:25;96640.31;;;3.57;100.00
48563;BME280;34981;49.104;11.396;2024-02-21T05:37:52;96638.66;;;3.56;100.00
48563;BME280;34981;49.104;11.396;2024-02-21T05:40:20;96642.16;;;3.56;100.00
48563;BME280;34981;49.104;11.396;2024-02-21T05:42:47;96648.66;;;3.60;100.00
48563;BME280;34981;49.104;11.396;2024-02-21T05:45:14;96668.72;;;3.56;100.00
48563;BME280;34981;49.104;11.396;2024-02-21T05:47:42;96661.16;;;3.53;100.00
48563;BME280;34981;49.104;11.396;2024-02-21T05:50:09;96662.19;;;3.52;100.00
48563;BME280;34981;49.104;11.396;2024-02-21T05:52:37;96670.78;;;3.47;100.00
48563;BME280;34981;49.104;11.396;2024-02-21T05:55:04;96678.97;;;3.46;100.00
48563;BME280;34981;49.104;11.396;2024-02-21T05:57:33;96679.56;;;3.48;100.00
48563;BME280;34981;49.104;11.396;2024-02-21T06:00:01;96677.31;;;3.45;100.00
48563;BME280;34981;49.104;11.396;2024-02-21T06:02:38;96674.47;;;3.46;100.00
48563;BME280;34981;49.104;11.396;2024-02-21T06:05:05;96682.22;;;3.48;100.00
48563;BME280;34981;49.104;11.396;2024-02-21T06:07:34;96673.47;;;3.41;100.00
48563;BME280;34981;49.104;11.396;2024-02-21T06:10:02;96687.78;;;3.33;100.00
48563;BME280;34981;49.104;11.396;2024-02-21T06:12:30;96693.47;;;3.30;100.00
48563;BME280;34981;49.104;11.396;2024-02-21T06:14:57;96701.88;;;3.27;100.00
48563;BME280;34981;49.104;11.396;2024-02-21T06:17:24;96719.84;;;3.32;100.00
48563;BME280;34981;49.104;11.396;2024-02-21T06:19:51;96742.94;;;3.38;100.00
48563;BME280;34981;49.104;11.396;2024-02-21T06:22:18;96759.53;;;3.33;100.00
48563;BME280;34981;49.104;11.396;2024-02-21T06:24:46;96775.47;;;3.33;100.00
48563;BME280;34981;49.104;11.396;2024-02-21T06:27:13;96798.94;;;3.30;100.00
48563;BME280;34981;49.104;11.396;2024-02-21T06:29:43;96802.44;;;3.24;100.00
48563;BME280;34981;49.104;11.396;2024-02-21T06:32:10;96816.97;;;3.21;100.00
48563;BME280;34981;49.104;11.396;2024-02-21T06:34:37;96817.97;;;3.20;100.00
48563;BME280;34981;49.104;11.396;2024-02-21T06:37:04;96827.34;;;3.23;100.00
48563;BME280;34981;49.104;11.396;2024-02-21T06:39:32;96847.78;;;3.22;100.00
48563;BME280;34981;49.104;11.396;2024-02-21T06:41:59;96861.31;;;3.21;100.00
48563;BME280;34981;49.104;11.396;2024-02-21T06:44:30;96875.19;;;3.23;100.00
48563;BME280;34981;49.104;11.396;2024-02-21T06:46:58;96878.84;;;3.22;100.00
48563;BME280;34981;49.104;11.396;2024-02-21T06:49:26;96897.25;;;3.23;100.00
48563;BME280;34981;49.104;11.396;2024-02-21T06:51:53;96910.75;;;3.22;100.00
48563;BME280;34981;49.104;11.396;2024-02-21T06:54:21;96927.91;;;3.19;100.00
48563;BME280;34981;49.104;11.396;2024-02-21T06:56:48;96948.00;;;3.28;100.00
48563;BME280;34981;49.104;11.396;2024-02-21T06:59:15;96960.84;;;3.25;100.00
48563;BME280;34981;49.104;11.396;2024-02-21T07:01:49;96987.03;;;3.28;100.00
48563;BME280;34981;49.104;11.396;2024-02-21T07:04:17;97006.84;;;3.32;100.00
48563;BME280;34981;49.104;11.396;2024-02-21T07:06:45;97029.16;;;3.37;100.00
48563;BME280;34981;49.104;11.396;2024-02-21T07:09:12;97036.31;;;3.37;100.00
48563;BME280;34981;49.104;11.396;2024-02-21T07:11:39;97051.25;;;3.38;100.00
48563;BME280;34981;49.104;11.396;2024-02-21T07:14:07;97066.81;;;3.41;100.00
48563;BME280;34981;49.104;11.396;2024-02-21T07:16:34;97078.06;;;3.43;100.00
48563;BME280;34981;49.104;11.396;2024-02-21T07:19:02;97079.50;;;3.45;100.00
48563;BME280;34981;49.104;11.396;2024-02-21T07:21:29;97089.94;;;3.47;100.00
48563;BME280;34981;49.104;11.396;2024-02-21T07:23:57;97092.59;;;3.47;100.00
48563;BME280;34981;49.104;11.396;2024-02-21T07:26:24;97094.03;;;3.49;100.00
48563;BME280;34981;49.104;11.396;2024-02-21T07:28:51;97086.06;;;3.49;100.00
48563;BME280;34981;49.104;11.396;2024-02-21T07:31:18;97080.94;;;3.48;100.00
48563;BME280;34981;49.104;11.396;2024-02-21T07:33:45;97075.22;;;3.51;100.00
48563;BME280;34981;49.104;11.396;2024-02-21T07:36:14;97083.81;;;3.53;100.00
48563;BME280;34981;49.104;11.396;2024-02-21T07:38:42;97081.78;;;3.55;100.00
48563;BME280;34981;49.104;11.396;2024-02-21T07:41:09;97081.38;;;3.58;100.00
48563;BME280;34981;49.104;11.396;2024-02-21T07:43:36;97077.97;;;3.64;100.00
48563;BME280;34981;49.104;11.396;2024-02-21T07:46:03;97081.47;;;3.71;100.00
48563;BME280;34981;49.104;11.396;2024-02-21T07:48:31;97089.69;;;3.89;100.00
48563;BME280;34981;49.104;11.396;2024-02-21T07:51:01;97094.44;;;4.01;100.00
48563;BME280;34981;49.104;11.396;2024-02-21T07:53:28;97114.56;;;4.23;100.00
48563;BME280;34981;49.104;11.396;2024-02-21T07:55:56;97132.41;;;4.36;100.00
48563;BME280;34981;49.104;11.396;2024-02-21T07:58:23;97130.38;;;4.51;100.00
48563;BME280;34981;49.104;11.396;2024-02-21T08:00:50;97146.81;;;4.67;100.00
48563;BME280;34981;49.104;11.396;2024-02-21T08:03:17;97158.50;;;4.99;100.00
48563;BME280;34981;49.104;11.396;2024-02-21T08:05:45;97171.59;;;5.21;100.00
48563;BME280;34981;49.104;11.396;2024-02-21T08:08:12;97145.16;;;5.32;100.00
48563;BME280;34981;49.104;11.396;2024-02-21T08:10:45;97113.53;;;5.42;100.00
48563;BME280;34981;49.104;11.396;2024-02-21T08:13:12;97073.09;;;5.52;100.00
48563;BME280;34981;49.104;11.396;2024-02-21T08:15:40;97043.69;;;5.72;100.00
48563;BME280;34981;49.104;11.396;2024-02-21T08:18:08;97001.38;;;5.82;100.00
48563;BME280;34981;49.104;11.396;2024-02-21T08:20:36;96953.50;;;5.87;100.00
48563;BME280;34981;49.104;11.396;2024-02-21T08:23:03;96890.13;;;5.82;100.00
48563;BME280;34981;49.104;11.396;2024-02-21T08:25:30;96818.00;;;5.96;100.00
48563;BME280;34981;49.104;11.396;2024-02-21T08:27:58;96751.53;;;6.12;100.00
48563;BME280;34981;49.104;11.396;2024-02-21T08:30:26;96663.88;;;6.09;100.00
48563;BME280;34981;49.104;11.396;2024-02-21T08:32:53;96590.34;;;6.25;100.00
48563;BME280;34981;49.104;11.396;2024-02-21T08:35:25;96500.41;;;6.25;100.00
48563;BME280;34981;49.104;11.396;2024-02-21T08:37:52;96381.09;;;6.26;100.00
48563;BME280;34981;49.104;11.396;2024-02-21T08:40:20;96283.00;;;6.33;100.00
48563;BME280;34981;49.104;11.396;2024-02-21T08:42:48;96200.19;;;6.45;100.00
48563;BME280;34981;49.104;11.396;2024-02-21T08:45:16;96138.38;;;6.53;100.00
48563;BME280;34981;49.104;11.396;2024-02-21T08:47:46;96071.06;;;6.84;100.00
48563;BME280;34981;49.104;11.396;2024-02-21T08:50:14;96025.47;;;6.91;100.00
48563;BME280;34981;49.104;11.396;2024-02-21T08:52:54;96101.44;;;7.12;100.00
48563;BME280;34981;49.104;11.396;2024-02-21T08:55:21;96256.56;;;7.17;100.00
48563;BME280;34981;49.104;11.396;2024-02-21T08:57:49;96395.72;;;7.22;100.00
48563;BME280;34981;49.104;11.396;2024-02-21T09:00:17;96482.66;;;7.13;100.00
48563;BME280;34981;49.104;11.396;2024-02-21T09:02:44;96552.41;;;7.34;100.00
48563;BME280;34981;49.104;11.396;2024-02-21T09:05:12;96583.56;;;7.40;100.00
48563;BME280;34981;49.104;11.396;2024-02-21T09:07:39;96589.25;;;7.44;100.00
48563;BME280;34981;49.104;11.396;2024-02-21T09:10:06;96585.91;;;7.37;100.00
48563;BME280;34981;49.104;11.396;2024-02-21T09:12:34;96579.25;;;7.51;100.00
48563;BME280;34981;49.104;11.396;2024-02-21T09:15:01;96587.38;;;7.56;100.00
48563;BME280;34981;49.104;11.396;2024-02-21T09:17:28;96580.44;;;7.83;100.00
48563;BME280;34981;49.104;11.396;2024-02-21T09:19:56;96559.03;;;7.95;100.00
48563;BME280;34981;49.104;11.396;2024-02-21T09:22:27;96551.22;;;7.94;100.00
48563;BME280;34981;49.104;11.396;2024-02-21T09:24:54;96540.31;;;7.83;100.00
48563;BME280;34981;49.104;11.396;2024-02-21T09:27:21;96522.97;;;7.86;100.00
48563;BME280;34981;49.104;11.396;2024-02-21T09:29:49;96500.06;;;8.07;100.00
48563;BME280;34981;49.104;11.396;2024-02-21T09:32:18;96485.97;;;8.28;100.00
48563;BME280;34981;49.104;11.396;2024-02-21T09:34:46;96463.31;;;8.19;100.00
48563;BME280;34981;49.104;11.396;2024-02-21T09:37:13;96442.59;;;8.43;100.00
48563;BME280;34981;49.104;11.396;2024-02-21T09:39:40;96416.13;;;8.46;100.00
48563;BME280;34981;49.104;11.396;2024-02-21T09:42:07;96397.28;;;8.25;100.00
48563;BME280;34981;49.104;11.396;2024-02-21T09:44:38;96364.00;;;8.20;100.00
48563;BME280;34981;49.104;11.396;2024-02-21T09:49:51;96330.34;;;8.63;100.00
48563;BME280;34981;49.104;11.396;2024-02-21T09:52:19;96311.22;;;8.54;100.00
48563;BME280;34981;49.104;11.396;2024-02-21T09:54:47;96305.78;;;8.71;100.00
48563;BME280;34981;49.104;11.396;2024-02-21T09:57:15;96282.53;;;8.77;100.00
48563;BME280;34981;49.104;11.396;2024-02-21T09:59:43;96262.84;;;8.88;100.00
48563;BME280;34981;49.104;11.396;2024-02-21T10:02:12;96249.00;;;8.96;100.00
48563;BME280;34981;49.104;11.396;2024-02-21T10:04:40;96234.97;;;8.89;100.00
48563;BME280;34981;49.104;11.396;2024-02-21T10:07:07;96222.06;;;8.86;100.00
48563;BME280;34981;49.104;11.396;2024-02-21T10:09:34;96195.41;;;9.01;100.00
48563;BME280;34981;49.104;11.396;2024-02-21T10:12:08;96179.19;;;8.86;100.00
48563;BME280;34981;49.104;11.396;2024-02-21T10:14:40;96163.25;;;9.01;100.00
48563;BME280;34981;49.104;11.396;2024-02-21T10:17:08;96138.03;;;9.02;100.00
48563;BME280;34981;49.104;11.396;2024-02-21T10:19:38;96128.91;;;8.98;100.00
48563;BME280;34981;49.104;11.396;2024-02-21T10:22:08;96118.69;;;8.95;100.00
48563;BME280;34981;49.104;11.396;2024-02-21T10:24:35;96105.25;;;8.90;100.00
48563;BME280;34981;49.104;11.396;2024-02-21T10:27:06;96095.69;;;9.04;100.00
48563;BME280;34981;49.104;11.396;2024-02-21T10:29:35;96072.25;;;9.26;100.00
48563;BME280;34981;49.104;11.396;2024-02-21T10:32:05;96072.78;;;9.23;100.00
48563;BME280;34981;49.104;11.396;2024-02-21T10:34:33;96074.28;;;9.09;100.00
48563;BME280;34981;49.104;11.396;2024-02-21T10:37:04;96063.09;;;8.85;100.00
48563;BME280;34981;49.104;11.396;2024-02-21T10:39:32;96053.44;;;8.84;100.00
48563;BME280;34981;49.104;11.396;2024-02-21T10:42:01;96044.66;;;8.94;100.00
48563;BME280;34981;49.104;11.396;2024-02-21T10:44:32;96050.34;;;8.97;100.00
48563;BME280;34981;49.104;11.396;2024-02-21T10:46:59;96035.69;;;9.10;100.00
48563;BME280;34981;49.104;11.396;2024-02-21T10:49:31;96030.06;;;9.12;100.00
48563;BME280;34981;49.104;11.396;2024-02-21T10:52:03;96027.72;;;9.20;100.00
48563;BME280;34981;49.104;11.396;2024-02-21T10:54:45;96022.69;;;9.34;100.00
48563;BME280;34981;49.104;11.396;2024-02-21T10:57:14;96016.03;;;9.47;100.00
48563;BME280;34981;49.104;11.396;2024-02-21T10:59:42;96016.84;;;9.42;100.00
48563;BME280;34981;49.104;11.396;2024-02-21T11:02:09;96021.41;;;9.47;100.00
48563;BME280;34981;49.104;11.396;2024-02-21T11:04:37;96024.56;;;9.38;100.00
48563;BME280;34981;49.104;11.396;2024-02-21T11:07:05;96038.88;;;9.54;100.00
48563;BME280;34981;49.104;11.396;2024-02-21T11:09:37;96045.63;;;9.57;100.00
48563;BME280;34981;49.104;11.396;2024-02-21T11:12:05;96040.44;;;9.45;100.00
48563;BME280;34981;49.104;11.396;2024-02-21T11:14:33;96038.91;;;9.59;100.00
48563;BME280;34981;49.104;11.396;2024-02-21T11:17:02;96031.97;;;9.63;100.00
48563;BME280;34981;49.104;11.396;2024-02-21T11:19:31;96025.78;;;9.63;100.00
48563;BME280;34981;49.104;11.396;2024-02-21T11:21:58;96021.50;;;9.72;100.00
48563;BME280;34981;49.104;11.396;2024-02-21T11:24:31;96030.59;;;9.61;100.00
48563;BME280;34981;49.104;11.396;2024-02-21T11:27:09;96025.47;;;9.54;100.00
48563;BME280;34981;49.104;11.396;2024-02-21T11:29:43;96013.69;;;9.60;100.00
48563;BME280;34981;49.104;11.396;2024-02-21T11:32:11;96005.94;;;9.64;100.00
48563;BME280;34981;49.104;11.396;2024-02-21T11:34:39;96000.56;;;9.69;100.00
48563;BME280;34981;49.104;11.396;2024-02-21T11:37:13;96007.88;;;9.79;100.00
48563;BME280;34981;49.104;11.396;2024-02-21T11:39:41;95990.97;;;9.83;100.00
48563;BME280;34981;49.104;11.396;2024-02-21T11:42:08;95982.66;;;9.85;100.00
48563;BME280;34981;49.104;11.396;2024-02-21T11:44:36;95982.09;;;9.88;100.00
48563;BME280;34981;49.104;11.396;2024-02-21T11:47:09;95985.84;;;9.87;100.00
48563;BME280;34981;49.104;11.396;2024-02-21T11:49:37;95973.53;;;9.86;100.00
48563;BME280;34981;49.104;11.396;2024-02-21T11:52:06;95979.16;;;9.84;100.00
48563;BME280;34981;49.104;11.396;2024-02-21T11:54:34;95980.47;;;9.76;100.00
48563;BME280;34981;49.104;11.396;2024-02-21T11:57:01;95980.75;;;9.80;100.00
48563;BME280;34981;49.104;11.396;2024-02-21T11:59:31;95969.22;;;9.85;100.00
48563;BME280;34981;49.104;11.396;2024-02-21T12:01:59;95962.50;;;9.82;100.00
48563;BME280;34981;49.104;11.396;2024-02-21T12:04:27;95971.09;;;9.89;100.00
48563;BME280;34981;49.104;11.396;2024-02-21T12:06:56;95970.00;;;9.75;100.00
48563;BME280;34981;49.104;11.396;2024-02-21T12:09:24;95954.94;;;9.74;100.00
48563;BME280;34981;49.104;11.396;2024-02-21T12:12:01;95954.19;;;9.79;100.00
48563;BME280;34981;49.104;11.396;2024-02-21T12:14:29;95940.97;;;9.72;100.00
48563;BME280;34981;49.104;11.396;2024-02-21T12:16:57;95936.97;;;9.69;100.00
48563;BME280;34981;49.104;11.396;2024-02-21T12:19:25;95940.47;;;9.70;100.00
48563;BME280;34981;49.104;11.396;2024-02-21T12:21:53;95941.22;;;9.65;100.00
48563;BME280;34981;49.104;11.396;2024-02-21T12:24:22;95933.47;;;9.74;100.00
48563;BME280;34981;49.104;11.396;2024-02-21T12:26:50;95937.22;;;9.68;100.00
48563;BME280;34981;49.104;11.396;2024-02-21T12:29:19;95933.75;;;9.72;100.00
48563;BME280;34981;49.104;11.396;2024-02-21T12:31:46;95924.34;;;9.70;100.00
48563;BME280;34981;49.104;11.396;2024-02-21T12:34:14;95917.09;;;9.70;100.00
48563;BME280;34981;49.104;11.396;2024-02-21T12:36:45;95924.66;;;9.79;100.00
48563;BME280;34981;49.104;11.396;2024-02-21T12:39:14;95919.53;;;9.82;100.00
48563;BME280;34981;49.104;11.396;2024-02-21T12:41:42;95913.63;;;9.75;100.00
48563;BME280;34981;49.104;11.396;2024-02-21T12:44:11;95906.13;;;9.77;100.00
48563;BME280;34981;49.104;11.396;2024-02-21T12:46:38;95902.06;;;9.74;100.00
48563;BME280;34981;49.104;11.396;2024-02-21T12:49:06;95899.91;;;9.56;100.00
48563;BME280;34981;49.104;11.396;2024-02-21T12:51:37;95894.50;;;9.46;100.00
48563;BME280;34981;49.104;11.396;2024-02-21T12:54:05;95894.78;;;9.55;100.00
48563;BME280;34981;49.104;11.396;2024-02-21T12:56:32;95888.09;;;9.67;100.00